Time;durP1;ratioP1;P1;durP2;ratioP2;P2;SDS_P1;SDS_P2;PMS_P1;PMS_P2;Temp;Humidity;BMP_temperature;BMP_pressure;BME280_temperature;BME280_humidity;BME280_pressure;Samples;Min_cycle;Max_cycle;Signal;HPM_P1;HPM_P2
2023/06/27 00:00:47;;;;;;;8.52;3.35;;;15.50;99.90;;;;;;5008682;28;20035;-65
2023/06/27 00:03:13;;;;;;;8.65;3.25;;;15.40;99.90;;;;;;5003516;28;20547;-65
2023/06/27 00:05:39;;;;;;;8.35;3.13;;;15.10;99.90;;;;;;5004905;28;20140;-68
2023/06/27 00:08:06;;;;;;;7.07;3.30;;;16.50;99.90;;;;;;5005534;28;20125;-66
2023/06/27 00:10:33;;;;;;;7.90;3.78;;;15.30;99.90;;;;;;5006052;28;20041;-65
2023/06/27 00:12:59;;;;;;;8.48;3.47;;;14.90;99.90;;;;;;5002692;28;20050;-66
2023/06/27 00:15:26;;;;;;;8.07;3.58;;;16.20;99.90;;;;;;5012090;28;20458;-66
2023/06/27 00:17:53;;;;;;;9.52;3.38;;;15.40;99.90;;;;;;4983965;28;20125;-65
2023/06/27 00:20:19;;;;;;;6.63;2.88;;;14.80;99.90;;;;;;4990549;28;20065;-65
2023/06/27 00:22:48;;;;;;;7.85;3.13;;;15.70;99.90;;;;;;5003306;28;20092;-65
2023/06/27 00:25:13;;;;;;;6.95;3.10;;;14.60;99.90;;;;;;5003625;28;20041;-65
2023/06/27 00:27:39;;;;;;;7.55;2.70;;;15.80;99.90;;;;;;5008430;28;20034;-65
2023/06/27 00:30:06;;;;;;;10.50;4.32;;;15.20;99.90;;;;;;4999870;28;20177;-65
2023/06/27 00:32:32;;;;;;;7.40;2.70;;;15.30;99.90;;;;;;5014486;28;20214;-66
2023/06/27 00:34:58;;;;;;;5.82;2.58;;;15.20;99.90;;;;;;5003231;28;20799;-65
2023/06/27 00:37:23;;;;;;;7.32;3.30;;;14.90;99.90;;;;;;5007475;28;20037;-65
2023/06/27 00:39:49;;;;;;;7.30;3.20;;;15.30;99.90;;;;;;4989253;28;20038;-66
2023/06/27 00:42:15;;;;;;;6.85;3.25;;;15.20;99.90;;;;;;5003594;28;20046;-67
2023/06/27 00:44:40;;;;;;;8.38;3.53;;;15.20;99.90;;;;;;5006935;28;20496;-64
2023/06/27 00:47:07;;;;;;;6.90;3.22;;;15.00;99.90;;;;;;4995293;28;20460;-65
2023/06/27 00:49:34;;;;;;;12.90;3.00;;;14.60;99.90;;;;;;5009855;28;20039;-67
2023/06/27 00:52:01;;;;;;;7.70;3.55;;;14.60;99.90;;;;;;4978573;28;20057;-66
2023/06/27 00:54:27;;;;;;;7.03;3.05;;;15.20;99.90;;;;;;5006019;28;20052;-65
2023/06/27 00:56:54;;;;;;;6.95;3.17;;;15.00;99.90;;;;;;4993505;28;20046;-65
2023/06/27 00:59:20;;;;;;;9.98;3.00;;;15.80;99.90;;;;;;5002528;28;20041;-65
2023/06/27 01:01:46;;;;;;;6.72;2.50;;;15.00;99.90;;;;;;4999970;28;20566;-66
2023/06/27 01:04:13;;;;;;;7.80;2.40;;;15.70;99.90;;;;;;4993445;28;20043;-66
2023/06/27 01:06:54;;;;;;;6.85;2.38;;;15.20;99.90;;;;;;4985888;28;20535;-65
2023/06/27 01:09:34;;;;;;;5.57;2.45;;;15.20;99.90;;;;;;4991676;28;20531;-66
2023/06/27 01:12:23;;;;;;;8.95;2.55;;;15.00;99.90;;;;;;4996811;28;20053;-66
2023/06/27 01:14:52;;;;;;;5.93;2.00;;;15.30;99.90;;;;;;5009316;28;20033;-66
2023/06/27 01:17:18;;;;;;;8.05;2.40;;;15.70;99.90;;;;;;5002199;28;20042;-65
2023/06/27 01:19:46;;;;;;;7.53;2.20;;;15.10;99.90;;;;;;5003502;28;20046;-65
2023/06/27 01:22:17;;;;;;;8.02;2.30;;;15.20;99.90;;;;;;5012064;28;20042;-65
2023/06/27 01:24:43;;;;;;;7.68;2.30;;;16.00;99.90;;;;;;5007764;28;20081;-64
2023/06/27 01:27:25;;;;;;;9.48;2.30;;;;;;;;;;5046715;22;20144;-84
2023/06/27 01:30:09;;;;;;;7.18;2.10;;;;;;;;;;5052705;28;20511;-83
2023/06/27 01:32:49;;;;;;;5.95;1.92;;;;;;;;;;5046331;28;20169;-81
2023/06/27 01:35:37;;;;;;;7.43;2.40;;;;;;;;;;5040578;28;20040;-81
2023/06/27 01:38:53;;;;;;;8.45;2.75;;;;;;;;;;5039904;28;20045;-82
2023/06/27 01:41:40;;;;;;;6.68;2.17;;;;;;;;;;5039382;28;20056;-80
2023/06/27 01:44:44;;;;;;;8.73;2.10;;;;;;;;;;5027823;28;20041;-80
2023/06/27 01:47:13;;;;;;;8.57;2.38;;;;;;;;;;5028099;28;20044;-80
2023/06/27 01:49:48;;;;;;;8.50;2.38;;;;;;;;;;5026587;28;20079;-81
2023/06/27 01:52:17;;;;;;;7.18;2.13;;;;;;;;;;5022248;28;20067;-80
2023/06/27 01:54:46;;;;;;;6.75;2.10;;;;;;;;;;5018526;28;20079;-79
2023/06/27 01:57:37;;;;;;;8.07;2.63;;;;;;;;;;5032008;28;20091;-76
2023/06/27 02:00:07;;;;;;;10.80;2.97;;;;;;;;;;5025650;28;20060;-81
2023/06/27 02:02:46;;;;;;;7.00;1.90;;;;;;;;;;5026955;28;20486;-78
2023/06/27 02:05:19;;;;;;;10.73;2.53;;;;;;;;;;5048178;28;20085;-78
2023/06/27 02:07:47;;;;;;;7.00;2.28;;;;;;;;;;5048866;28;20049;-82
2023/06/27 02:10:16;;;;;;;10.75;2.65;;;;;;;;;;5019748;28;20044;-78
2023/06/27 02:12:51;;;;;;;5.93;2.10;;;;;;;;;;5026575;28;20045;-81
2023/06/27 02:15:34;;;;;;;7.15;2.53;;;;;;;;;;5039855;28;20127;-80
2023/06/27 02:18:04;;;;;;;10.32;2.17;;;15.60;99.90;;;;;;5037708;28;20048;-78
2023/06/27 02:20:41;;;;;;;8.05;2.30;;;;;;;;;;5034350;28;20048;-81
2023/06/27 02:23:10;;;;;;;7.43;2.22;;;;;;;;;;5024671;28;20144;-77
2023/06/27 02:25:43;;;;;;;8.32;2.60;;;;;;;;;;5008682;28;20741;-78
2023/06/27 02:28:12;;;;;;;6.80;2.95;;;;;;;;;;5023156;28;20075;-78
2023/06/27 02:31:04;;;;;;;8.63;2.90;;;;;;;;;;5042419;28;20053;-78
2023/06/27 02:34:28;;;;;;;9.05;3.10;;;16.60;99.90;;;;;;5036779;28;20468;-80
2023/06/27 02:36:57;;;;;;;7.90;2.13;;;;;;;;;;5030398;28;20048;-80
2023/06/27 02:39:32;;;;;;;8.15;2.63;;;;;;;;;;5025521;28;20758;-80
2023/06/27 02:42:08;;;;;;;11.88;3.22;;;;;;;;;;5043189;28;20043;-81
2023/06/27 02:44:40;;;;;;;6.68;2.38;;;;;;;;;;5030760;28;20040;-78
2023/06/27 02:47:14;;;;;;;9.38;2.50;;;;;;;;;;5011155;28;20038;-79
2023/06/27 02:49:57;;;;;;;8.88;2.40;;;;;;;;;;5008368;28;20063;-78
2023/06/27 02:52:38;;;;;;;8.77;2.28;;;;;;;;;;5036018;28;20094;-77
2023/06/27 02:55:25;;;;;;;11.10;2.60;;;;;;;;;;5018625;28;20462;-82
2023/06/27 02:57:51;;;;;;;7.75;3.20;;;;;;;;;;5031512;28;20484;-79
2023/06/27 03:00:26;;;;;;;8.00;2.35;;;;;;;;;;5033621;28;20095;-80
2023/06/27 03:03:00;;;;;;;7.38;2.15;;;;;;;;;;5032933;28;20045;-77
2023/06/27 03:05:31;;;;;;;5.72;2.13;;;;;;;;;;5024966;28;20057;-81
2023/06/27 03:08:16;;;;;;;6.30;2.60;;;;;;;;;;5035436;28;20897;-78
2023/06/27 03:10:56;;;;;;;6.35;1.92;;;;;;;;;;5021898;28;20629;-81
2023/06/27 03:13:35;;;;;;;5.93;2.38;;;;;;;;;;5016633;28;20551;-77
2023/06/27 03:16:20;;;;;;;10.38;2.88;;;;;;;;;;5024022;28;20554;-81
2023/06/27 03:19:06;;;;;;;11.70;2.97;;;;;;;;;;5024510;28;20041;-83
2023/06/27 03:21:38;;;;;;;6.63;2.22;;;;;;;;;;5024599;28;20468;-76
2023/06/27 03:27:15;;;;;;;6.43;2.17;;;;;;;;;;5026402;28;20041;-79
2023/06/27 03:29:59;;;;;;;10.18;2.55;;;;;;;;;;5025654;28;20515;-80
2023/06/27 03:32:25;;;;;;;12.52;2.47;;;;;;;;;;5036344;28;20029;-82
2023/06/27 03:35:12;;;;;;;10.30;2.67;;;;;;;;;;5041735;28;20033;-80
2023/06/27 03:37:44;;;;;;;6.63;2.28;;;;;;;;;;5022120;28;20137;-80
2023/06/27 03:40:16;;;;;;;7.78;1.90;;;;;;;;;;5021374;28;20573;-81
2023/06/27 03:43:07;;;;;;;9.05;2.10;;;;;;;;;;5037629;28;20041;-82
2023/06/27 03:45:48;;;;;;;7.82;2.42;;;;;;;;;;5022073;28;20037;-81
2023/06/27 03:48:34;;;;;;;7.60;2.40;;;;;;;;;;5027850;28;20086;-80
2023/06/27 03:51:11;;;;;;;6.97;2.40;;;;;;;;;;5028408;28;20045;-81
2023/06/27 03:53:40;;;;;;;7.65;2.33;;;;;;;;;;5030367;28;20033;-79
2023/06/27 03:56:17;;;;;;;6.40;1.98;;;;;;;;;;5010787;28;20045;-83
2023/06/27 03:58:46;;;;;;;9.95;2.83;;;;;;;;;;5041211;28;20071;-80
2023/06/27 04:01:17;;;;;;;6.90;2.10;;;;;;;;;;5027833;28;20037;-82
2023/06/27 04:03:43;;;;;;;7.47;2.65;;;;;;;;;;5025512;28;20052;-79
2023/06/27 04:06:33;;;;;;;8.10;1.98;;;;;;;;;;5023833;28;20508;-78
2023/06/27 04:09:07;;;;;;;8.23;2.17;;;;;;;;;;5025118;28;20045;-78
2023/06/27 04:11:35;;;;;;;5.80;2.08;;;;;;;;;;5012328;28;20041;-81
2023/06/27 04:14:10;;;;;;;7.05;2.08;;;;;;;;;;5025433;28;20037;-79
2023/06/27 04:16:40;;;;;;;5.78;2.10;;;;;;;;;;5011599;28;20101;-80
2023/06/27 04:19:18;;;;;;;7.85;2.15;;;;;;;;;;5045093;28;20073;-80
2023/06/27 04:22:07;;;;;;;7.15;2.00;;;;;;;;;;5028202;28;20099;-79
2023/06/27 04:24:33;;;;;;;6.93;1.98;;;;;;;;;;5024554;28;20103;-79
2023/06/27 04:26:59;;;;;;;8.10;1.75;;;;;;;;;;5043141;28;20032;-77
2023/06/27 04:29:32;;;;;;;9.05;2.17;;;;;;;;;;5026482;28;20049;-80
2023/06/27 04:32:03;;;;;;;7.88;2.20;;;;;;;;;;5010394;28;20762;-80
2023/06/27 04:34:41;;;;;;;9.45;2.33;;;;;;;;;;5026589;28;20830;-79
2023/06/27 04:37:12;;;;;;;7.78;2.45;;;;;;;;;;5026725;28;20433;-77
2023/06/27 04:39:59;;;;;;;6.20;2.17;;;;;;;;;;5026934;28;20162;-76
2023/06/27 04:42:54;;;;;;;10.25;2.10;;;;;;;;;;5020229;28;20037;-80
2023/06/27 04:45:31;;;;;;;7.18;2.20;;;;;;;;;;4961214;28;20054;-78
2023/06/27 04:48:08;;;;;;;12.80;2.80;;;;;;;;;;4982016;28;20070;-81
2023/06/27 04:50:42;;;;;;;6.53;1.85;;;;;;;;;;5012339;28;20095;-80
2023/06/27 04:53:08;;;;;;;6.60;1.55;;;16.40;99.90;;;;;;5044432;28;20036;-79
2023/06/27 04:55:53;;;;;;;;;;;;;;;;;;;;;
2023/06/27 04:58:25;;;;;;;7.78;1.95;;;;;;;;;;5041953;28;20135;-78
2023/06/27 05:01:15;;;;;;;6.22;1.60;;;;;;;;;;5027796;28;20052;-78
2023/06/27 05:03:47;;;;;;;8.70;1.85;;;;;;;;;;5041669;28;20045;-78
2023/06/27 05:06:23;;;;;;;;;;;;;;;;;;;;;
2023/06/27 05:09:11;;;;;;;8.35;1.70;;;;;;;;;;5021961;28;20774;-78
2023/06/27 05:11:48;;;;;;;5.38;1.98;;;;;;;;;;5012599;28;20041;-78
2023/06/27 05:14:45;;;;;;;6.47;2.00;;;;;;;;;;5036362;28;20056;-81
2023/06/27 05:17:22;;;;;;;11.57;2.70;;;;;;;;;;5043508;28;20043;-80
2023/06/27 05:19:49;;;;;;;9.18;1.90;;;;;;;;;;5008606;28;20044;-81
2023/06/27 05:22:20;;;;;;;5.90;1.70;;;;;;;;;;5029505;28;20049;-82
2023/06/27 05:25:02;;;;;;;6.53;1.95;;;;;;;;;;5025897;28;20045;-79
2023/06/27 05:27:51;;;;;;;6.00;1.75;;;;;;;;;;5029745;28;20041;-80
2023/06/27 05:30:28;;;;;;;9.15;2.28;;;17.40;96.70;;;;;;5016339;28;20045;-82
2023/06/27 05:33:10;;;;;;;7.60;2.05;;;;;;;;;;5029616;28;20041;-80
2023/06/27 05:35:53;;;;;;;6.45;1.65;;;;;;;;;;5039193;28;20040;-77
2023/06/27 05:38:20;;;;;;;7.28;1.70;;;;;;;;;;5027176;28;20089;-80
2023/06/27 05:40:45;;;;;;;7.32;1.90;;;17.50;28.80;;;;;;5013182;28;20041;-81
2023/06/27 05:43:11;;;;;;;6.10;1.50;;;;;;;;;;5045785;28;20048;-81
2023/06/27 05:45:37;;;;;;;8.52;1.75;;;;;;;;;;5027251;28;20048;-82
2023/06/27 05:48:04;;;;;;;7.70;1.50;;;;;;;;;;5026829;28;20116;-81
2023/06/27 05:50:29;;;;;;;8.48;1.90;;;17.90;1.00;;;;;;5026897;28;20040;-83
2023/06/27 05:52:55;;;;;;;6.97;1.75;;;;;;;;;;5026227;28;20494;-82
2023/06/27 05:55:21;;;;;;;6.32;1.95;;;17.90;1.00;;;;;;5030669;28;20041;-84
2023/06/27 06:00:15;;;;;;;8.15;1.70;;;18.10;1.00;;;;;;5021876;28;20037;-55
2023/06/27 06:02:43;;;;;;;6.75;2.28;;;18.10;1.00;;;;;;5025917;28;20101;-56
2023/06/27 06:05:10;;;;;;;8.70;1.55;;;18.10;1.00;;;;;;5002046;28;20038;-55
2023/06/27 06:07:39;;;;;;;5.82;1.50;;;18.20;1.00;;;;;;5028338;28;20092;-55
2023/06/27 06:10:06;;;;;;;6.55;1.40;;;18.30;99.90;;;;;;5029546;28;20509;-55
2023/06/27 06:12:32;;;;;;;5.78;1.60;;;;;;;;;;5029676;28;20039;-53
2023/06/27 06:14:57;;;;;;;5.45;1.60;;;18.40;99.90;;;;;;5011886;28;20124;-54
2023/06/27 06:17:23;;;;;;;5.85;1.58;;;18.60;99.90;;;;;;5009663;28;20477;-56
2023/06/27 06:19:48;;;;;;;8.35;1.50;;;17.90;99.90;;;;;;5027391;28;20107;-55
2023/06/27 06:22:14;;;;;;;9.48;2.05;;;18.90;99.90;;;;;;5029139;28;20044;-56
2023/06/27 06:24:41;;;;;;;8.18;1.58;;;;;;;;;;5011042;28;20112;-56
2023/06/27 06:27:07;;;;;;;12.20;2.17;;;19.40;99.90;;;;;;5028998;28;20103;-58
2023/06/27 06:29:32;;;;;;;7.55;1.50;;;19.20;99.90;;;;;;5029762;28;20033;-55
2023/06/27 06:31:58;;;;;;;4.97;1.42;;;19.50;99.90;;;;;;4995314;28;20064;-52
2023/06/27 06:34:24;;;;;;;7.80;1.50;;;19.80;99.90;;;;;;5029060;28;20038;-55
2023/06/27 06:36:49;;;;;;;7.05;1.25;;;18.70;99.90;;;;;;5029225;28;20037;-58
2023/06/27 06:39:15;;;;;;;4.88;1.42;;;19.00;41.90;;;;;;5029108;28;20488;-56
2023/06/27 06:41:40;;;;;;;11.45;1.85;;;19.40;59.10;;;;;;5028799;28;20045;-53
2023/06/27 06:44:06;;;;;;;7.25;1.45;;;19.50;1.00;;;;;;5028732;28;20037;-57
2023/06/27 06:46:32;;;;;;;6.13;1.83;;;19.10;1.00;;;;;;5011288;28;20041;-57
2023/06/27 06:48:57;;;;;;;9.00;2.00;;;19.90;1.00;;;;;;5029444;28;20033;-55
2023/06/27 06:51:23;;;;;;;9.20;1.70;;;19.00;1.00;;;;;;5028914;28;20056;-55
2023/06/27 06:53:49;;;;;;;5.78;1.50;;;20.10;1.00;;;;;;5028753;28;20037;-54
2023/06/27 06:56:15;;;;;;;6.28;1.50;;;20.40;1.00;;;;;;5010763;28;20112;-55
2023/06/27 06:58:40;;;;;;;5.22;1.40;;;20.20;1.00;;;;;;5003152;28;20037;-52
2023/06/27 07:01:06;;;;;;;5.10;1.50;;;19.80;99.90;;;;;;5029436;28;20037;-53
2023/06/27 07:03:33;;;;;;;6.03;1.55;;;20.00;99.90;;;;;;4994431;28;20041;-52
2023/06/27 07:05:59;;;;;;;5.72;1.63;;;20.40;99.90;;;;;;5028224;28;20045;-53
2023/06/27 07:08:25;;;;;;;6.30;1.55;;;20.30;99.90;;;;;;5028787;28;20403;-54
2023/06/27 07:10:51;;;;;;;6.22;2.22;;;20.10;99.90;;;;;;5029029;28;20685;-54
2023/06/27 07:13:16;;;;;;;5.22;1.58;;;20.30;99.90;;;;;;5028369;28;20075;-55
2023/06/27 07:15:42;;;;;;;5.10;1.40;;;20.20;99.90;;;;;;5028077;28;20037;-54
2023/06/27 07:18:08;;;;;;;6.82;1.50;;;20.00;99.90;;;;;;5028427;28;20546;-56
2023/06/27 07:20:34;;;;;;;6.55;1.50;;;20.10;99.90;;;;;;5021023;28;20106;-56
2023/06/27 07:22:59;;;;;;;6.38;1.30;;;20.20;99.90;;;;;;5028797;28;20034;-53
2023/06/27 07:25:25;;;;;;;8.65;1.70;;;19.90;99.90;;;;;;5028241;28;20041;-57
2023/06/27 07:27:51;;;;;;;9.63;2.55;;;20.00;99.90;;;;;;5026451;28;20115;-55
2023/06/27 07:30:17;;;;;;;6.43;1.50;;;20.00;99.90;;;;;;4994699;28;20038;-58
2023/06/27 07:32:42;;;;;;;7.53;1.63;;;20.00;99.90;;;;;;5028627;28;20033;-55
2023/06/27 07:35:08;;;;;;;8.82;1.50;;;20.20;99.90;;;;;;5011069;28;20160;-52
2023/06/27 07:37:34;;;;;;;6.25;1.58;;;20.20;99.90;;;;;;5011224;28;20036;-53
2023/06/27 07:40:01;;;;;;;7.20;2.10;;;19.80;99.90;;;;;;5028713;28;20463;-54
2023/06/27 07:42:26;;;;;;;7.00;1.80;;;20.20;99.90;;;;;;5028575;28;20045;-55
2023/06/27 07:44:53;;;;;;;5.63;1.58;;;20.50;99.90;;;;;;5010525;28;20034;-54
2023/06/27 07:47:19;;;;;;;5.00;1.58;;;20.60;99.90;;;;;;5028484;28;20040;-55
2023/06/27 07:49:44;;;;;;;6.28;1.55;;;20.20;99.90;;;;;;5028557;28;20116;-55
2023/06/27 07:52:10;;;;;;;10.18;1.70;;;20.90;99.90;;;;;;5028188;28;20112;-55
2023/06/27 07:54:36;;;;;;;8.10;2.10;;;20.30;99.90;;;;;;5028508;28;20462;-54
2023/06/27 07:57:02;;;;;;;9.05;2.13;;;19.90;99.90;;;;;;5028816;28;20324;-54
2023/06/27 07:59:28;;;;;;;6.57;1.50;;;20.30;99.90;;;;;;5010575;28;20071;-54
2023/06/27 08:01:54;;;;;;;6.25;1.48;;;20.70;99.90;;;;;;5028538;28;20112;-54
2023/06/27 08:04:21;;;;;;;5.40;1.65;;;20.40;99.90;;;;;;5010434;28;20049;-55
2023/06/27 08:06:46;;;;;;;5.07;1.83;;;19.50;99.90;;;;;;5010354;28;20124;-54
2023/06/27 08:09:12;;;;;;;5.95;1.70;;;20.00;99.90;;;;;;5028167;28;20124;-55
2023/06/27 08:11:38;;;;;;;6.70;1.45;;;20.30;99.90;;;;;;5010936;28;20030;-55
2023/06/27 08:14:03;;;;;;;5.22;1.85;;;20.00;99.90;;;;;;5010743;28;20033;-54
2023/06/27 08:16:29;;;;;;;6.05;1.40;;;20.40;99.90;;;;;;5009847;28;20506;-52
2023/06/27 08:18:56;;;;;;;6.00;1.38;;;20.10;99.90;;;;;;5028115;28;20038;-52
2023/06/27 08:21:21;;;;;;;5.85;1.20;;;20.00;99.90;;;;;;5023773;28;20038;-51
2023/06/27 08:23:47;;;;;;;5.60;1.40;;;20.40;99.90;;;;;;5029557;28;20040;-54
2023/06/27 08:26:16;;;;;;;4.05;1.27;;;20.50;99.90;;;;;;5031198;28;20041;-53
2023/06/27 08:28:43;;;;;;;6.20;1.50;;;20.40;99.90;;;;;;5031953;28;20482;-54
2023/06/27 08:31:10;;;;;;;7.60;1.50;;;20.40;99.90;;;;;;5031873;28;20029;-54
2023/06/27 08:33:36;;;;;;;4.90;1.40;;;21.20;99.90;;;;;;5013787;28;20037;-55
2023/06/27 08:36:02;;;;;;;7.55;1.65;;;20.40;99.90;;;;;;5031384;28;20113;-54
2023/06/27 08:38:27;;;;;;;6.55;1.52;;;20.60;99.90;;;;;;4997292;28;20041;-55
2023/06/27 08:40:54;;;;;;;7.47;1.35;;;20.20;39.10;;;;;;4997320;28;20076;-55
2023/06/27 08:43:20;;;;;;;13.32;2.25;;;20.90;1.00;;;;;;5031398;28;20407;-55
2023/06/27 08:45:48;;;;;;;6.40;1.40;;;20.90;1.00;;;;;;5031452;28;20092;-55
2023/06/27 08:48:16;;;;;;;7.55;1.25;;;20.70;1.00;;;;;;5030925;28;20557;-55
2023/06/27 08:50:43;;;;;;;6.80;1.25;;;20.90;1.00;;;;;;5023861;28;20112;-54
2023/06/27 08:53:17;;;;;;;5.53;1.60;;;20.60;1.00;;;;;;5031062;28;20040;-55
2023/06/27 08:55:52;;;;;;;8.02;1.60;;;;;;;;;;5028606;28;20044;-55
2023/06/27 08:58:23;;;;;;;6.63;1.70;;;20.50;1.00;;;;;;5013527;28;20076;-52
2023/06/27 09:00:49;;;;;;;4.35;1.30;;;20.60;1.00;;;;;;5024742;28;20061;-54
2023/06/27 09:03:16;;;;;;;6.28;1.60;;;20.60;1.00;;;;;;5030835;28;20117;-55
2023/06/27 09:05:42;;;;;;;5.93;1.95;;;20.80;1.00;;;;;;5030927;28;20040;-53
2023/06/27 09:08:09;;;;;;;5.90;1.33;;;20.30;1.00;;;;;;5030758;28;20557;-55
2023/06/27 09:10:35;;;;;;;6.88;1.55;;;21.50;1.00;;;;;;5013221;28;20057;-54
2023/06/27 09:13:01;;;;;;;5.85;1.50;;;20.90;1.00;;;;;;5030827;28;20287;-52
2023/06/27 09:15:27;;;;;;;7.00;1.60;;;20.20;1.00;;;;;;5010537;28;20071;-53
2023/06/27 09:17:52;;;;;;;6.38;1.50;;;21.50;1.00;;;;;;5029669;28;20056;-54
2023/06/27 09:20:19;;;;;;;6.15;1.73;;;20.80;1.00;;;;;;5030573;28;20505;-53
2023/06/27 09:22:45;;;;;;;7.13;1.48;;;20.70;1.00;;;;;;5030891;28;20045;-55
2023/06/27 09:25:14;;;;;;;5.90;1.70;;;20.20;1.00;;;;;;5012791;28;20037;-55
2023/06/27 09:27:40;;;;;;;3.67;1.30;;;21.10;1.00;;;;;;5030306;28;20079;-54
2023/06/27 09:30:08;;;;;;;7.45;1.67;;;20.30;1.00;;;;;;5031068;28;20038;-54
2023/06/27 09:32:59;;;;;;;7.78;1.55;;;21.30;1.00;;;;;;5027040;28;20067;-52
2023/06/27 09:35:26;;;;;;;6.20;1.60;;;20.50;1.00;;;;;;5010454;28;20380;-55
2023/06/27 09:37:53;;;;;;;6.88;1.60;;;20.70;1.00;;;;;;5029558;28;20044;-53
2023/06/27 09:40:27;;;;;;;4.53;1.50;;;20.40;1.00;;;;;;5011851;28;20029;-55
2023/06/27 09:42:57;;;;;;;7.63;1.88;;;21.60;1.00;;;;;;5030568;28;20044;-55
2023/06/27 09:45:24;;;;;;;7.25;1.60;;;20.70;1.00;;;;;;5029782;28;20044;-55
2023/06/27 09:47:50;;;;;;;5.00;1.67;;;;;;;;;;5006497;28;20514;-54
2023/06/27 09:50:28;;;;;;;7.30;1.60;;;20.60;1.00;;;;;;5030260;28;20049;-55
2023/06/27 09:52:56;;;;;;;5.10;1.55;;;20.50;1.00;;;;;;5030206;28;20475;-55
2023/06/27 09:55:22;;;;;;;7.15;1.40;;;20.40;1.00;;;;;;5011895;28;20033;-55
2023/06/27 09:57:48;;;;;;;7.30;1.73;;;21.50;99.90;;;;;;5030425;28;20044;-54
2023/06/27 10:00:17;;;;;;;6.05;2.15;;;20.20;99.90;;;;;;5029898;28;20040;-54
2023/06/27 10:02:47;;;;;;;6.85;1.77;;;20.50;99.90;;;;;;5019877;28;20516;-55
2023/06/27 10:05:12;;;;;;;5.47;1.52;;;20.30;1.00;;;;;;5004520;28;20041;-55
2023/06/27 10:07:39;;;;;;;5.05;1.38;;;21.20;1.00;;;;;;5029368;28;20426;-53
2023/06/27 10:10:07;;;;;;;6.03;1.33;;;20.10;99.90;;;;;;5012091;28;20038;-55
2023/06/27 10:12:33;;;;;;;5.45;1.38;;;20.20;99.90;;;;;;5020122;28;20132;-54
2023/06/27 10:14:59;;;;;;;7.85;2.10;;;20.60;1.00;;;;;;5023915;28;20495;-55
2023/06/27 10:17:29;;;;;;;8.13;1.85;;;21.40;1.00;;;;;;5027421;28;20045;-55
2023/06/27 10:19:56;;;;;;;5.38;1.73;;;20.60;99.90;;;;;;5011945;28;20041;-53
2023/06/27 10:22:26;;;;;;;6.18;1.48;;;21.40;1.00;;;;;;5011910;28;20404;-53
2023/06/27 10:24:56;;;;;;;6.55;1.50;;;20.50;1.00;;;;;;5026189;28;20427;-54
2023/06/27 10:27:21;;;;;;;8.40;1.70;;;20.40;1.00;;;;;;5008495;28;20501;-54
2023/06/27 10:29:47;;;;;;;7.18;1.40;;;21.50;1.00;;;;;;5011932;28;20117;-55
2023/06/27 10:32:18;;;;;;;7.70;1.67;;;21.90;1.00;;;;;;5029893;28;20091;-55
2023/06/27 10:34:44;;;;;;;7.80;1.48;;;21.00;99.90;;;;;;5029038;28;20245;-55
2023/06/27 10:37:26;;;;;;;7.60;1.70;;;20.90;99.90;;;;;;5029694;28;20060;-54
2023/06/27 10:40:04;;;;;;;6.45;1.60;;;21.00;99.90;;;;;;5009642;28;20408;-53
2023/06/27 10:42:31;;;;;;;5.95;1.30;;;20.90;99.90;;;;;;5028145;28;20041;-55
2023/06/27 10:45:00;;;;;;;6.53;1.80;;;21.10;99.90;;;;;;5027492;28;20437;-55
2023/06/27 10:47:34;;;;;;;6.00;1.40;;;21.30;99.90;;;;;;5028701;28;20045;-53
2023/06/27 10:50:21;;;;;;;6.40;1.30;;;20.60;99.90;;;;;;5011719;28;20048;-55
2023/06/27 10:53:00;;;;;;;5.07;1.52;;;21.10;1.00;;;;;;4997617;28;20080;-55
2023/06/27 10:55:29;;;;;;;6.95;1.63;;;20.70;99.90;;;;;;5028782;28;20507;-55
2023/06/27 10:58:02;;;;;;;4.60;1.30;;;20.70;99.90;;;;;;4993568;28;20090;-54
2023/06/27 11:00:31;;;;;;;9.18;1.73;;;21.00;99.90;;;;;;5003286;28;20050;-53
2023/06/27 11:02:57;;;;;;;4.82;1.50;;;21.20;99.90;;;;;;5027646;28;20113;-55
2023/06/27 11:05:44;;;;;;;8.25;1.65;;;21.80;99.90;;;;;;5027091;28;20037;-52
2023/06/27 11:08:15;;;;;;;6.15;1.70;;;20.80;99.90;;;;;;5024321;28;20507;-55
2023/06/27 11:11:01;;;;;;;6.85;1.73;;;21.00;99.90;;;;;;5028763;28;20158;-55
2023/06/27 11:13:28;;;;;;;5.43;1.40;;;21.30;99.90;;;;;;5021420;28;20041;-55
2023/06/27 11:15:55;;;;;;;5.10;1.50;;;21.00;99.90;;;;;;5028247;28;20487;-53
2023/06/27 11:18:22;;;;;;;6.72;1.80;;;21.80;99.90;;;;;;5029406;28;20120;-54
2023/06/27 11:20:49;;;;;;;6.40;1.58;;;21.30;99.90;;;;;;5025132;28;20376;-55
2023/06/27 11:23:16;;;;;;;7.30;1.40;;;22.10;99.90;;;;;;5022249;28;20045;-55
2023/06/27 11:25:44;;;;;;;5.35;1.48;;;21.80;99.90;;;;;;5022877;28;20598;-54
2023/06/27 11:28:12;;;;;;;4.72;1.15;;;21.10;99.90;;;;;;5019309;28;20042;-55
2023/06/27 11:30:38;;;;;;;7.07;1.63;;;21.50;99.90;;;;;;5011867;28;20050;-55
2023/06/27 11:33:04;;;;;;;4.15;1.27;;;21.80;99.90;;;;;;5004971;28;20506;-52
2023/06/27 11:35:38;;;;;;;5.68;1.48;;;21.20;99.90;;;;;;5017020;28;20053;-53
2023/06/27 11:38:07;;;;;;;6.60;1.30;;;21.40;99.90;;;;;;5024461;28;20735;-54
2023/06/27 11:40:33;;;;;;;4.97;1.40;;;21.80;99.90;;;;;;5027134;28;20429;-53
2023/06/27 11:43:04;;;;;;;6.10;1.40;;;21.80;99.90;;;;;;5022684;28;20113;-54
2023/06/27 11:45:33;;;;;;;6.07;1.10;;;22.20;99.90;;;;;;5025274;28;20046;-53
2023/06/27 11:48:00;;;;;;;5.00;1.35;;;22.50;99.90;;;;;;5004414;28;20099;-53
2023/06/27 11:50:27;;;;;;;5.70;1.33;;;22.10;99.90;;;;;;5023608;28;20491;-52
2023/06/27 11:52:55;;;;;;;6.03;1.30;;;22.20;99.90;;;;;;5000924;28;20056;-55
2023/06/27 11:55:21;;;;;;;3.78;0.98;;;22.30;99.90;;;;;;5002759;28;20045;-54
2023/06/27 11:57:48;;;;;;;6.50;1.50;;;22.70;99.90;;;;;;5023117;28;20048;-53
2023/06/27 12:00:18;;;;;;;7.25;1.70;;;22.40;99.90;;;;;;5021934;28;20124;-56
2023/06/27 12:02:49;;;;;;;5.40;1.33;;;22.40;99.90;;;;;;5024024;28;20052;-55
2023/06/27 12:05:16;;;;;;;5.55;1.50;;;21.80;99.90;;;;;;5030744;28;20045;-55
2023/06/27 12:08:01;;;;;;;5.50;1.45;;;22.50;99.90;;;;;;5013921;28;20045;-53
2023/06/27 12:10:28;;;;;;;13.20;3.03;;;22.60;99.90;;;;;;5013945;28;20041;-55
2023/06/27 12:12:54;;;;;;;5.75;1.52;;;22.80;99.90;;;;;;5032274;28;20041;-55
2023/06/27 12:15:20;;;;;;;5.18;1.50;;;22.60;99.90;;;;;;5013685;28;20041;-55
2023/06/27 12:18:02;;;;;;;7.15;1.52;;;22.60;99.90;;;;;;5031430;28;20079;-52
2023/06/27 12:20:47;;;;;;;8.30;2.25;;;22.70;99.90;;;;;;5024056;28;20137;-55
2023/06/27 12:23:13;;;;;;;9.80;1.92;;;22.50;99.90;;;;;;5030461;28;20554;-54
2023/06/27 12:25:40;;;;;;;6.72;1.20;;;22.80;99.90;;;;;;5013354;28;20176;-55
2023/06/27 12:28:06;;;;;;;6.40;1.60;;;23.20;99.90;;;;;;5030405;28;20042;-55
2023/06/27 12:30:32;;;;;;;5.60;1.65;;;23.30;99.90;;;;;;5028307;28;20041;-55
2023/06/27 12:32:58;;;;;;;6.55;1.50;;;23.20;99.90;;;;;;5020272;28;20033;-55
2023/06/27 12:35:24;;;;;;;6.78;1.88;;;23.30;99.90;;;;;;5013426;28;20479;-53
2023/06/27 12:37:49;;;;;;;5.07;1.65;;;23.20;99.90;;;;;;5028035;28;20051;-55
2023/06/27 12:40:16;;;;;;;9.35;1.52;;;23.10;99.90;;;;;;5030544;28;20609;-55
2023/06/27 12:42:43;;;;;;;7.30;1.85;;;23.20;99.90;;;;;;5012392;28;20394;-56
2023/06/27 12:45:13;;;;;;;6.35;1.55;;;23.20;99.90;;;;;;5022897;28;20029;-53
2023/06/27 12:47:43;;;;;;;7.22;1.50;;;24.40;99.90;;;;;;5013537;28;20068;-53
2023/06/27 12:50:16;;;;;;;6.75;1.63;;;23.70;99.90;;;;;;5013556;28;20067;-52
2023/06/27 12:52:47;;;;;;;6.28;1.60;;;23.20;99.90;;;;;;5031029;28;20037;-53
2023/06/27 12:55:16;;;;;;;6.45;1.65;;;23.30;99.90;;;;;;5031087;28;20052;-52
2023/06/27 12:57:43;;;;;;;8.45;1.50;;;23.30;99.90;;;;;;5030438;28;20491;-53
2023/06/27 13:00:09;;;;;;;9.68;1.63;;;23.40;99.90;;;;;;4996201;28;20337;-52
2023/06/27 13:02:36;;;;;;;6.38;1.73;;;23.70;99.90;;;;;;5024980;28;20450;-52
2023/06/27 13:05:03;;;;;;;4.53;1.60;;;23.00;99.90;;;;;;5030081;28;20052;-53
2023/06/27 13:07:29;;;;;;;5.97;1.60;;;22.80;99.90;;;;;;5012162;28;20232;-55
2023/06/27 13:09:56;;;;;;;5.88;1.83;;;23.00;99.90;;;;;;5029180;28;20041;-55
2023/06/27 13:12:22;;;;;;;6.03;1.70;;;23.20;99.90;;;;;;5028674;28;20038;-52
2023/06/27 13:14:48;;;;;;;6.25;1.40;;;22.90;99.90;;;;;;5030038;28;20128;-54
2023/06/27 13:17:14;;;;;;;5.22;1.38;;;23.30;99.90;;;;;;5030859;28;20042;-52
2023/06/27 13:19:39;;;;;;;6.55;1.60;;;23.70;99.90;;;;;;5028849;28;20434;-53
2023/06/27 13:22:05;;;;;;;12.13;1.98;;;23.50;99.90;;;;;;5025308;28;20621;-56
2023/06/27 13:24:31;;;;;;;5.55;1.60;;;23.50;99.90;;;;;;5026658;28;20498;-52
2023/06/27 13:26:57;;;;;;;5.90;1.50;;;24.60;99.90;;;;;;5030619;28;20037;-53
2023/06/27 13:29:23;;;;;;;6.50;1.70;;;25.30;99.90;;;;;;4996391;28;20037;-54
2023/06/27 13:31:48;;;;;;;7.00;1.95;;;25.20;99.90;;;;;;5030544;28;20033;-53
2023/06/27 13:34:14;;;;;;;5.90;1.67;;;27.20;99.90;;;;;;5030977;28;20412;-52
2023/06/27 13:36:40;;;;;;;6.15;1.75;;;27.10;99.90;;;;;;5029414;28;20418;-52
2023/06/27 13:39:05;;;;;;;9.48;2.03;;;27.00;99.90;;;;;;5030706;28;20167;-54
2023/06/27 13:41:31;;;;;;;6.35;1.55;;;26.70;99.90;;;;;;5030252;28;20034;-54
2023/06/27 13:43:57;;;;;;;5.97;1.60;;;25.80;99.90;;;;;;5010640;28;20037;-53
2023/06/27 13:46:22;;;;;;;6.57;1.50;;;25.10;99.90;;;;;;5030187;28;20297;-52